Time;durP1;ratioP1;P1;durP2;ratioP2;P2;SDS_P1;SDS_P2;PMS_P1;PMS_P2;Temp;Humidity;BMP_temperature;BMP_pressure;BME280_temperature;BME280_humidity;BME280_pressure;Samples;Min_cycle;Max_cycle;Signal;HPM_P1;HPM_P2
2023/10/04 00:00:40;;;;;;;8.20;3.00;;;15.10;93.40;;;;;;5054423;28;20457;-57
2023/10/04 00:03:07;;;;;;;7.57;3.00;;;15.10;93.40;;;;;;5054465;28;20452;-57
2023/10/04 00:05:35;;;;;;;7.57;2.40;;;15.10;93.50;;;;;;5054442;28;20579;-57
2023/10/04 00:08:02;;;;;;;3.70;2.10;;;15.00;93.60;;;;;;5054378;28;20445;-57
2023/10/04 00:10:30;;;;;;;6.90;2.73;;;15.00;93.60;;;;;;5054375;28;20493;-57
2023/10/04 00:12:56;;;;;;;7.97;3.40;;;15.00;93.70;;;;;;5054374;28;20446;-57
2023/10/04 00:15:25;;;;;;;7.07;2.33;;;15.00;93.90;;;;;;5054180;28;20453;-57
2023/10/04 00:17:53;;;;;;;5.43;2.30;;;15.00;93.90;;;;;;5053916;28;20796;-57
2023/10/04 00:20:21;;;;;;;6.67;2.60;;;14.90;94.00;;;;;;5054036;28;20497;-57
2023/10/04 00:22:48;;;;;;;6.73;2.70;;;15.00;94.10;;;;;;5054199;28;20446;-57
2023/10/04 00:25:20;;;;;;;7.47;2.57;;;14.90;94.30;;;;;;5054032;28;20450;-58
2023/10/04 00:27:49;;;;;;;6.23;2.00;;;15.00;94.20;;;;;;5054145;28;20854;-57
2023/10/04 00:30:18;;;;;;;8.67;2.37;;;14.90;94.30;;;;;;5054014;28;20461;-57
2023/10/04 00:32:46;;;;;;;8.33;3.00;;;14.90;94.40;;;;;;5053932;28;20549;-57
2023/10/04 00:35:17;;;;;;;6.63;2.50;;;14.80;94.30;;;;;;5054130;28;20446;-57
2023/10/04 00:37:47;;;;;;;8.67;2.10;;;14.80;94.50;;;;;;5054144;28;20434;-57
2023/10/04 00:40:21;;;;;;;4.20;2.47;;;14.80;94.60;;;;;;5054689;28;20465;-57
2023/10/04 00:42:49;;;;;;;2.33;1.63;;;14.70;94.70;;;;;;5054262;28;20784;-57
2023/10/04 00:45:17;;;;;;;9.77;2.70;;;14.70;95.10;;;;;;5054598;28;20445;-56
2023/10/04 00:47:47;;;;;;;7.03;3.00;;;14.60;95.10;;;;;;5054595;28;20445;-57
2023/10/04 00:50:18;;;;;;;9.10;2.47;;;14.60;95.70;;;;;;5054175;28;21029;-57
2023/10/04 00:52:48;;;;;;;6.80;2.30;;;14.50;95.60;;;;;;5053619;28;20469;-57
2023/10/04 00:55:17;;;;;;;7.80;1.77;;;14.50;95.70;;;;;;5054793;28;20446;-57
2023/10/04 00:57:45;;;;;;;7.57;2.63;;;14.40;95.70;;;;;;5055404;28;20520;-58
2023/10/04 01:00:14;;;;;;;9.40;2.50;;;14.50;95.90;;;;;;5055427;28;20548;-57
2023/10/04 01:02:41;;;;;;;13.67;2.30;;;14.40;96.00;;;;;;5054539;28;20461;-57
2023/10/04 01:05:08;;;;;;;7.53;2.87;;;14.40;96.20;;;;;;5053541;28;20457;-57
2023/10/04 01:07:38;;;;;;;11.63;3.07;;;14.40;96.40;;;;;;5053563;28;20449;-57
2023/10/04 01:10:06;;;;;;;6.10;2.27;;;14.40;96.60;;;;;;5053448;28;20500;-57
2023/10/04 01:12:33;;;;;;;14.33;3.10;;;14.40;96.90;;;;;;5053238;28;20481;-57
2023/10/04 01:15:19;;;;;;;6.13;2.23;;;14.40;96.60;;;;;;5053405;28;20495;-57
2023/10/04 01:17:48;;;;;;;5.40;2.00;;;14.30;96.80;;;;;;5053369;28;20430;-57
2023/10/04 01:20:16;;;;;;;4.63;2.43;;;14.30;96.80;;;;;;5052937;28;21006;-57
2023/10/04 01:22:44;;;;;;;5.87;2.60;;;14.30;96.90;;;;;;5052903;28;20853;-57
2023/10/04 01:25:12;;;;;;;7.50;2.20;;;14.30;97.10;;;;;;5053274;28;20867;-58
2023/10/04 01:27:41;;;;;;;5.97;2.37;;;14.30;97.10;;;;;;5053175;28;20476;-57
2023/10/04 01:30:13;;;;;;;7.93;2.77;;;14.30;97.10;;;;;;5052806;28;20848;-57
2023/10/04 01:32:39;;;;;;;5.43;2.10;;;14.30;97.20;;;;;;5053126;28;20477;-57
2023/10/04 01:35:08;;;;;;;8.80;2.30;;;14.30;97.40;;;;;;5053143;28;20448;-57
2023/10/04 01:37:38;;;;;;;7.63;2.17;;;14.30;97.50;;;;;;5053008;28;20456;-57
2023/10/04 01:40:12;;;;;;;7.37;2.53;;;14.30;97.50;;;;;;5053039;28;20553;-57
2023/10/04 01:42:40;;;;;;;6.37;2.37;;;14.30;97.60;;;;;;5053008;28;20792;-57
2023/10/04 01:45:09;;;;;;;8.07;3.23;;;14.30;97.70;;;;;;5052575;28;20943;-57
2023/10/04 01:47:36;;;;;;;6.67;2.13;;;14.30;97.70;;;;;;5053032;28;20567;-57
2023/10/04 01:50:05;;;;;;;9.80;3.10;;;14.30;97.60;;;;;;5052693;28;20496;-57
2023/10/04 01:52:33;;;;;;;11.03;2.57;;;14.30;97.70;;;;;;5052621;28;21037;-57
2023/10/04 01:55:00;;;;;;;5.23;2.10;;;14.30;97.90;;;;;;5052941;28;20815;-57
2023/10/04 01:57:28;;;;;;;6.00;2.50;;;14.30;97.90;;;;;;5052602;28;20822;-57
2023/10/04 01:59:55;;;;;;;6.07;2.20;;;14.30;98.00;;;;;;5052603;28;20466;-57
2023/10/04 02:02:23;;;;;;;6.80;2.10;;;14.40;97.90;;;;;;5054078;28;20444;-57
2023/10/04 02:04:53;;;;;;;7.70;2.53;;;14.40;97.80;;;;;;5056754;28;20479;-57
2023/10/04 02:07:23;;;;;;;7.00;2.43;;;14.40;98.00;;;;;;5056627;28;20455;-57
2023/10/04 02:09:51;;;;;;;6.13;3.03;;;14.40;97.90;;;;;;5056542;28;20465;-57
2023/10/04 02:12:18;;;;;;;6.23;2.13;;;14.40;98.00;;;;;;5056412;28;20520;-57
2023/10/04 02:14:47;;;;;;;10.80;3.17;;;14.50;98.00;;;;;;5056519;28;20824;-57
2023/10/04 02:17:16;;;;;;;9.57;2.40;;;14.50;97.80;;;;;;5056485;28;20445;-57
2023/10/04 02:19:43;;;;;;;8.33;2.50;;;14.50;97.80;;;;;;5056393;28;20476;-57
2023/10/04 02:22:12;;;;;;;15.00;3.63;;;14.50;97.70;;;;;;5056428;28;20441;-58
2023/10/04 02:24:39;;;;;;;7.07;2.33;;;14.50;97.70;;;;;;5056320;28;20445;-58
2023/10/04 02:27:07;;;;;;;9.43;2.70;;;14.50;97.60;;;;;;5056233;28;20445;-57
2023/10/04 02:29:34;;;;;;;7.33;2.40;;;14.50;97.60;;;;;;5056159;28;20500;-57
2023/10/04 02:32:08;;;;;;;8.50;1.83;;;14.40;97.80;;;;;;5056137;28;20524;-57
2023/10/04 02:34:35;;;;;;;11.80;2.83;;;14.50;97.80;;;;;;5062109;28;20459;-57
2023/10/04 02:37:06;;;;;;;7.90;3.00;;;14.50;97.70;;;;;;5076136;28;20456;-58
2023/10/04 02:39:33;;;;;;;12.10;2.90;;;14.50;97.80;;;;;;5075931;28;20465;-57
2023/10/04 02:42:00;;;;;;;8.23;2.70;;;14.40;97.70;;;;;;5075960;28;20441;-57
2023/10/04 02:44:26;;;;;;;4.37;2.20;;;14.50;97.90;;;;;;5075973;28;20463;-58
2023/10/04 02:46:53;;;;;;;14.20;3.00;;;14.50;97.80;;;;;;5075939;28;20456;-57
2023/10/04 02:49:23;;;;;;;4.63;2.03;;;14.50;97.80;;;;;;5075796;28;20468;-57
2023/10/04 02:51:50;;;;;;;10.60;2.93;;;14.50;97.80;;;;;;5075499;28;20516;-57
2023/10/04 02:54:17;;;;;;;5.17;2.23;;;14.50;97.70;;;;;;5075680;28;20445;-58
2023/10/04 02:56:46;;;;;;;6.77;2.40;;;14.50;97.60;;;;;;5075695;28;20476;-57
2023/10/04 02:59:16;;;;;;;7.10;2.00;;;14.50;97.70;;;;;;5075609;28;20457;-57
2023/10/04 03:01:43;;;;;;;8.50;2.10;;;14.50;97.70;;;;;;5075578;28;20448;-57
2023/10/04 03:04:11;;;;;;;6.80;2.60;;;14.50;98.00;;;;;;5075638;28;20448;-57
2023/10/04 03:06:40;;;;;;;9.47;2.47;;;14.50;97.90;;;;;;5075532;28;20444;-57
2023/10/04 03:09:07;;;;;;;8.13;2.50;;;14.50;97.90;;;;;;5075448;28;20455;-58
2023/10/04 03:11:36;;;;;;;9.53;1.90;;;14.50;97.80;;;;;;5075333;28;20848;-57
2023/10/04 03:14:06;;;;;;;3.37;1.63;;;14.50;97.60;;;;;;5074445;28;20445;-56
2023/10/04 03:16:33;;;;;;;7.37;2.77;;;14.60;97.70;;;;;;5075077;28;20972;-57
2023/10/04 03:19:00;;;;;;;11.43;3.47;;;14.60;97.50;;;;;;5075283;28;20448;-57
2023/10/04 03:21:30;;;;;;;10.00;3.00;;;14.60;97.40;;;;;;5075200;28;20485;-57
2023/10/04 03:23:58;;;;;;;9.30;2.90;;;14.50;97.50;;;;;;5075003;28;21008;-57
2023/10/04 03:26:25;;;;;;;8.50;2.93;;;14.50;97.70;;;;;;5075168;28;20460;-57
2023/10/04 03:28:52;;;;;;;7.03;1.97;;;14.50;97.50;;;;;;5075117;28;20828;-57
2023/10/04 03:31:20;;;;;;;7.20;2.57;;;14.50;97.60;;;;;;5074976;28;20473;-57
2023/10/04 03:33:49;;;;;;;7.27;2.90;;;14.50;97.70;;;;;;5075117;28;20449;-57
2023/10/04 03:36:17;;;;;;;11.50;3.57;;;14.50;97.70;;;;;;5074670;28;20938;-57
2023/10/04 03:38:44;;;;;;;9.67;3.10;;;14.50;97.80;;;;;;5074849;28;20444;-57
2023/10/04 03:41:13;;;;;;;10.60;2.70;;;14.40;98.20;;;;;;5074870;28;20464;-57
2023/10/04 03:43:40;;;;;;;9.60;2.90;;;14.40;98.00;;;;;;5074700;28;20856;-57
2023/10/04 03:46:16;;;;;;;9.37;3.17;;;14.40;97.90;;;;;;5074820;28;20448;-57
2023/10/04 03:48:43;;;;;;;6.40;2.87;;;14.30;97.90;;;;;;5074748;28;20428;-58
2023/10/04 03:51:10;;;;;;;8.57;3.20;;;14.30;98.00;;;;;;5074126;28;20995;-57
2023/10/04 03:53:37;;;;;;;9.10;2.47;;;14.20;98.20;;;;;;5074510;28;20496;-57
2023/10/04 03:56:05;;;;;;;11.47;2.70;;;14.20;98.40;;;;;;5074507;28;20452;-57
2023/10/04 03:58:35;;;;;;;10.17;3.00;;;14.20;98.30;;;;;;5074603;28;20907;-57
2023/10/04 04:01:02;;;;;;;6.37;2.50;;;14.20;98.40;;;;;;5074435;28;20468;-57
2023/10/04 04:03:30;;;;;;;8.70;2.60;;;14.20;98.50;;;;;;5074415;28;20852;-57
2023/10/04 04:05:57;;;;;;;7.63;2.30;;;14.20;98.50;;;;;;5074345;28;20453;-57
2023/10/04 04:08:25;;;;;;;7.43;2.10;;;14.10;98.50;;;;;;5074092;28;20956;-57
2023/10/04 04:10:52;;;;;;;10.27;2.80;;;14.10;98.60;;;;;;5075383;28;20884;-57
2023/10/04 04:13:19;;;;;;;10.30;3.17;;;14.10;98.70;;;;;;5077155;28;20484;-57
2023/10/04 04:15:48;;;;;;;6.40;2.10;;;14.10;98.60;;;;;;5075759;28;20476;-57
2023/10/04 04:18:16;;;;;;;12.43;2.53;;;14.10;98.70;;;;;;5074729;28;20950;-57
2023/10/04 04:20:43;;;;;;;15.47;3.60;;;14.10;98.80;;;;;;5074353;28;20905;-57
2023/10/04 04:23:10;;;;;;;10.60;3.07;;;14.10;98.70;;;;;;5074102;28;20441;-57
2023/10/04 04:25:39;;;;;;;7.30;2.63;;;14.00;98.60;;;;;;5074030;28;20468;-57
2023/10/04 04:28:07;;;;;;;12.83;3.10;;;14.00;98.60;;;;;;5074466;28;20936;-57
2023/10/04 04:30:35;;;;;;;8.20;3.00;;;14.10;98.70;;;;;;5073971;28;20465;-57
2023/10/04 04:33:06;;;;;;;9.40;2.90;;;14.10;98.70;;;;;;5073823;28;20567;-57
2023/10/04 04:35:47;;;;;;;5.23;2.20;;;14.00;98.50;;;;;;5073928;28;20425;-57
2023/10/04 04:38:17;;;;;;;10.37;2.87;;;14.00;98.60;;;;;;5073920;28;20457;-57
2023/10/04 04:40:47;;;;;;;9.80;3.80;;;13.90;98.70;;;;;;5073610;28;20476;-57
2023/10/04 04:43:26;;;;;;;12.57;2.80;;;13.90;98.60;;;;;;5073760;28;20472;-57
2023/10/04 04:45:56;;;;;;;9.80;2.70;;;13.90;98.60;;;;;;5073808;28;20454;-57
2023/10/04 04:48:26;;;;;;;6.53;2.23;;;14.00;98.70;;;;;;5073735;28;20429;-57
2023/10/04 04:50:54;;;;;;;7.70;2.60;;;14.00;98.70;;;;;;5073151;28;20860;-57
2023/10/04 04:53:22;;;;;;;8.63;2.13;;;14.00;98.70;;;;;;5073408;28;20483;-57
2023/10/04 04:55:50;;;;;;;12.20;2.60;;;14.00;98.70;;;;;;5073635;28;20562;-57
2023/10/04 04:58:19;;;;;;;11.83;3.53;;;14.00;98.70;;;;;;5073610;28;20539;-57
2023/10/04 05:00:49;;;;;;;7.80;2.30;;;14.00;98.60;;;;;;5073558;28;20465;-57
2023/10/04 05:03:16;;;;;;;7.03;2.60;;;14.10;98.60;;;;;;5073459;28;20437;-57
2023/10/04 05:05:44;;;;;;;7.90;2.30;;;14.00;98.30;;;;;;5073389;28;20543;-57
2023/10/04 05:08:11;;;;;;;6.43;2.40;;;14.00;98.30;;;;;;5073209;28;20949;-57
2023/10/04 05:10:38;;;;;;;7.27;2.30;;;13.90;98.40;;;;;;5073297;28;20464;-57
2023/10/04 05:13:07;;;;;;;8.40;2.50;;;13.90;98.50;;;;;;5073190;28;20481;-57
2023/10/04 05:15:36;;;;;;;5.90;2.30;;;13.90;98.60;;;;;;5073278;28;20507;-57
2023/10/04 05:18:10;;;;;;;12.13;2.73;;;13.80;98.40;;;;;;5073370;28;20472;-57
2023/10/04 05:20:38;;;;;;;13.20;2.90;;;13.80;98.60;;;;;;5072948;28;21047;-57
2023/10/04 05:23:06;;;;;;;14.20;3.67;;;13.80;98.70;;;;;;5073178;28;20441;-57
2023/10/04 05:25:33;;;;;;;11.93;2.83;;;13.80;98.70;;;;;;5073191;28;20472;-57
2023/10/04 05:28:04;;;;;;;8.63;3.00;;;13.80;98.60;;;;;;5073288;28;20445;-57
2023/10/04 05:30:31;;;;;;;15.20;4.00;;;13.80;98.70;;;;;;5073145;28;20460;-57
2023/10/04 05:32:58;;;;;;;10.20;2.90;;;13.80;98.80;;;;;;5073090;28;20476;-57
2023/10/04 05:35:26;;;;;;;12.77;3.50;;;13.70;98.70;;;;;;5058684;28;20519;-57
2023/10/04 05:37:52;;;;;;;9.90;3.57;;;13.70;98.80;;;;;;5054901;28;20456;-57
2023/10/04 05:40:25;;;;;;;7.87;2.60;;;13.70;98.80;;;;;;5057079;28;20472;-57
2023/10/04 05:42:53;;;;;;;14.10;3.10;;;13.70;98.80;;;;;;5057258;28;20460;-57
2023/10/04 05:45:20;;;;;;;6.97;2.27;;;13.70;98.80;;;;;;5056725;28;20445;-57
2023/10/04 05:47:48;;;;;;;15.33;3.27;;;13.70;98.80;;;;;;5056986;28;20537;-57
2023/10/04 05:50:17;;;;;;;12.73;2.90;;;13.70;98.80;;;;;;5056719;28;20473;-57
2023/10/04 05:52:44;;;;;;;7.70;2.80;;;13.70;98.60;;;;;;5056954;28;20465;-57
2023/10/04 05:55:11;;;;;;;10.10;4.10;;;13.80;98.60;;;;;;5056917;28;20453;-57
2023/10/04 05:57:39;;;;;;;12.73;3.47;;;13.80;98.50;;;;;;5056932;28;20449;-57
2023/10/04 06:00:21;;;;;;;10.10;3.33;;;13.80;98.40;;;;;;5056799;28;20469;-57
2023/10/04 06:02:49;;;;;;;10.40;2.70;;;13.80;98.40;;;;;;5056768;28;20426;-57
2023/10/04 06:05:16;;;;;;;8.40;2.97;;;13.70;98.30;;;;;;5056659;28;20808;-57
2023/10/04 06:07:43;;;;;;;7.03;3.53;;;13.70;98.40;;;;;;5056291;28;20445;-57
2023/10/04 06:10:11;;;;;;;10.63;3.47;;;13.60;98.60;;;;;;5056551;28;20580;-57
2023/10/04 06:12:40;;;;;;;8.57;2.67;;;13.60;98.80;;;;;;5056788;28;21002;-56
2023/10/04 06:15:10;;;;;;;9.03;2.70;;;13.60;98.90;;;;;;5057581;28;20449;-57
2023/10/04 06:17:41;;;;;;;7.27;2.50;;;13.50;99.10;;;;;;5056392;28;20438;-57
2023/10/04 06:20:23;;;;;;;8.70;2.70;;;13.60;99.20;;;;;;5056079;28;20469;-57
2023/10/04 06:22:50;;;;;;;10.67;2.03;;;13.50;99.10;;;;;;5056410;28;20421;-57
2023/10/04 06:25:17;;;;;;;9.27;3.03;;;13.60;99.30;;;;;;5056360;28;20495;-57
2023/10/04 06:27:45;;;;;;;6.30;2.30;;;13.60;99.20;;;;;;5056258;28;20450;-57
2023/10/04 06:30:13;;;;;;;8.80;3.37;;;13.60;99.10;;;;;;5056107;28;20507;-57
2023/10/04 06:32:39;;;;;;;7.90;2.87;;;13.60;99.10;;;;;;5056117;28;20484;-57
2023/10/04 06:35:08;;;;;;;8.10;3.10;;;13.60;99.30;;;;;;5056233;28;20445;-57
2023/10/04 06:37:36;;;;;;;7.57;2.27;;;13.60;99.20;;;;;;5056109;28;20455;-57
2023/10/04 06:40:04;;;;;;;8.53;2.97;;;13.50;99.30;;;;;;5055997;28;20475;-57
2023/10/04 06:42:31;;;;;;;7.00;2.90;;;13.50;99.40;;;;;;5055643;28;20445;-57
2023/10/04 06:44:59;;;;;;;11.40;3.40;;;13.50;99.30;;;;;;5055617;28;21001;-56
2023/10/04 06:47:27;;;;;;;11.43;3.10;;;13.50;99.40;;;;;;5055987;28;20448;-57
2023/10/04 06:49:54;;;;;;;9.53;2.87;;;13.60;99.30;;;;;;5054450;28;20480;-57
2023/10/04 06:52:20;;;;;;;5.67;2.00;;;13.60;99.40;;;;;;5056267;28;20426;-57
2023/10/04 06:54:47;;;;;;;6.83;2.83;;;13.60;99.40;;;;;;5055754;28;20441;-57
2023/10/04 06:57:14;;;;;;;14.70;3.33;;;13.70;99.20;;;;;;5055773;28;20445;-57
2023/10/04 06:59:40;;;;;;;15.13;2.90;;;13.70;99.10;;;;;;5055608;28;20465;-57
2023/10/04 07:02:09;;;;;;;7.37;2.17;;;13.80;99.10;;;;;;5055656;28;20442;-56
2023/10/04 07:04:36;;;;;;;7.17;3.33;;;13.80;98.90;;;;;;5055630;28;20442;-57
2023/10/04 07:07:02;;;;;;;10.83;2.60;;;13.80;98.90;;;;;;5055544;28;20454;-57
2023/10/04 07:09:29;;;;;;;7.60;3.20;;;13.90;98.60;;;;;;5055402;28;20473;-57
2023/10/04 07:11:56;;;;;;;7.90;2.10;;;13.90;98.60;;;;;;5055468;28;20442;-57
2023/10/04 07:14:22;;;;;;;9.83;2.83;;;14.00;98.70;;;;;;5055355;28;20488;-57
2023/10/04 07:16:49;;;;;;;8.10;2.37;;;14.00;98.60;;;;;;5055015;28;20837;-57
2023/10/04 07:19:18;;;;;;;10.30;3.50;;;14.10;98.40;;;;;;5055350;28;20473;-57
2023/10/04 07:21:44;;;;;;;11.80;3.33;;;14.20;98.40;;;;;;5055355;28;20515;-57
2023/10/04 07:24:11;;;;;;;8.90;2.63;;;14.30;98.40;;;;;;5055315;28;20799;-57
2023/10/04 07:26:38;;;;;;;9.20;2.77;;;14.30;98.30;;;;;;5055517;28;20465;-57
2023/10/04 07:29:04;;;;;;;11.97;2.77;;;14.40;98.00;;;;;;5058784;28;20445;-57
2023/10/04 07:31:34;;;;;;;9.30;2.63;;;14.40;98.10;;;;;;5056871;28;20821;-56
2023/10/04 07:34:01;;;;;;;11.17;3.07;;;14.60;98.10;;;;;;5056022;28;20470;-57
2023/10/04 07:36:29;;;;;;;9.50;3.00;;;14.60;97.90;;;;;;5055223;28;20446;-57
2023/10/04 07:38:56;;;;;;;8.27;2.30;;;14.60;97.50;;;;;;5055320;28;20449;-56
2023/10/04 07:41:23;;;;;;;11.27;2.80;;;14.70;97.60;;;;;;5055196;28;20453;-58
2023/10/04 07:43:49;;;;;;;5.87;3.00;;;14.70;97.60;;;;;;5054884;28;20441;-57
2023/10/04 07:46:18;;;;;;;6.83;2.60;;;14.80;97.30;;;;;;5054948;28;20520;-57
2023/10/04 07:48:44;;;;;;;6.67;2.50;;;14.80;97.30;;;;;;5054805;28;20460;-57
2023/10/04 07:51:12;;;;;;;8.93;3.30;;;14.90;97.00;;;;;;5054394;28;20779;-57
2023/10/04 07:53:42;;;;;;;6.87;2.87;;;14.90;97.00;;;;;;5055325;28;20485;-56
2023/10/04 07:56:11;;;;;;;9.40;2.37;;;15.00;96.80;;;;;;5054696;28;20485;-57
2023/10/04 07:58:37;;;;;;;8.60;2.60;;;15.00;96.80;;;;;;5054352;28;20445;-57
2023/10/04 08:01:04;;;;;;;9.70;3.43;;;15.10;97.10;;;;;;5053875;28;20469;-57
2023/10/04 08:03:31;;;;;;;11.50;3.60;;;15.10;96.70;;;;;;5054692;28;20473;-57
2023/10/04 08:05:57;;;;;;;11.10;3.40;;;15.20;96.50;;;;;;5054524;28;20449;-57
2023/10/04 08:08:24;;;;;;;5.73;2.53;;;15.20;96.90;;;;;;5054538;28;20441;-57
2023/10/04 08:10:55;;;;;;;7.13;2.77;;;15.40;97.00;;;;;;5054397;28;20457;-57
2023/10/04 08:13:21;;;;;;;5.97;2.20;;;15.40;96.60;;;;;;5054061;28;21044;-56
2023/10/04 08:15:48;;;;;;;8.30;3.00;;;15.40;96.70;;;;;;5054360;28;20444;-57
2023/10/04 08:18:16;;;;;;;9.93;2.87;;;15.40;96.20;;;;;;5054506;28;20441;-57
2023/10/04 08:20:43;;;;;;;10.77;3.23;;;15.40;96.40;;;;;;5054400;28;21080;-57
2023/10/04 08:23:10;;;;;;;10.57;2.93;;;15.50;96.60;;;;;;5054716;28;20884;-57
2023/10/04 08:25:37;;;;;;;8.50;2.43;;;15.50;96.40;;;;;;5055007;28;20450;-57
2023/10/04 08:28:08;;;;;;;9.53;3.17;;;15.60;96.40;;;;;;5055003;28;20453;-57
2023/10/04 08:30:38;;;;;;;10.83;2.80;;;15.70;96.10;;;;;;5054948;28;20469;-57
2023/10/04 08:33:05;;;;;;;13.67;2.63;;;15.70;95.70;;;;;;5055533;28;20446;-57
2023/10/04 08:35:36;;;;;;;7.27;3.10;;;15.70;96.00;;;;;;5055677;28;20597;-57
2023/10/04 08:38:04;;;;;;;9.73;3.23;;;15.70;96.20;;;;;;5053889;28;20449;-58
2023/10/04 08:40:35;;;;;;;9.77;2.83;;;15.80;95.80;;;;;;5053812;28;20536;-57
2023/10/04 08:43:04;;;;;;;8.80;3.10;;;15.90;95.50;;;;;;5053876;28;20430;-57
2023/10/04 08:45:34;;;;;;;10.03;3.00;;;15.90;95.40;;;;;;5053721;28;20446;-57
2023/10/04 08:48:02;;;;;;;9.20;3.00;;;15.90;95.50;;;;;;5053350;28;20928;-58
2023/10/04 08:50:36;;;;;;;9.70;2.90;;;16.10;95.40;;;;;;5053401;28;20560;-58
2023/10/04 08:53:10;;;;;;;11.27;3.10;;;16.20;95.60;;;;;;5053625;28;20430;-57
2023/10/04 08:55:41;;;;;;;11.70;2.70;;;16.20;95.20;;;;;;5053314;28;20437;-58
2023/10/04 08:58:08;;;;;;;10.83;3.00;;;16.30;94.60;;;;;;5053552;28;20437;-58
2023/10/04 09:00:43;;;;;;;7.27;2.77;;;16.50;94.80;;;;;;5053413;28;20468;-57
2023/10/04 09:03:10;;;;;;;10.57;2.80;;;16.60;94.30;;;;;;5053484;28;20491;-57
2023/10/04 09:05:37;;;;;;;11.17;2.70;;;16.80;94.10;;;;;;5053466;28;20449;-58
2023/10/04 09:08:05;;;;;;;15.03;3.40;;;16.80;94.10;;;;;;5053950;28;20886;-57
2023/10/04 09:10:33;;;;;;;11.60;2.47;;;16.80;93.50;;;;;;5052974;28;21046;-57
2023/10/04 09:13:00;;;;;;;10.77;3.73;;;16.90;93.40;;;;;;5052303;28;20488;-57
2023/10/04 09:15:28;;;;;;;10.47;2.80;;;16.90;93.40;;;;;;5053130;28;20492;-57
2023/10/04 09:17:57;;;;;;;9.77;2.80;;;16.90;93.90;;;;;;5053343;28;20469;-58
2023/10/04 09:20:27;;;;;;;9.93;2.63;;;17.10;93.30;;;;;;5053238;28;20560;-57
2023/10/04 09:22:54;;;;;;;12.70;3.23;;;17.10;92.90;;;;;;5053196;28;20430;-58
2023/10/04 09:25:22;;;;;;;7.90;3.20;;;17.20;93.40;;;;;;5053245;28;20449;-57
2023/10/04 09:27:55;;;;;;;9.80;3.13;;;17.30;93.20;;;;;;5053180;28;20495;-58
2023/10/04 09:30:23;;;;;;;12.17;3.30;;;17.40;93.00;;;;;;5053104;28;20462;-57
2023/10/04 09:32:51;;;;;;;7.63;2.93;;;17.40;93.40;;;;;;5053114;28;20499;-57
2023/10/04 09:35:19;;;;;;;11.77;4.37;;;17.70;93.90;;;;;;5052715;28;21002;-58
2023/10/04 09:37:46;;;;;;;11.43;3.23;;;17.80;93.00;;;;;;5053165;28;20450;-57
2023/10/04 09:40:16;;;;;;;7.63;2.97;;;18.00;91.90;;;;;;5053131;28;20469;-58
2023/10/04 09:42:51;;;;;;;7.80;2.67;;;18.00;91.70;;;;;;5053013;28;20452;-57
2023/10/04 09:45:20;;;;;;;7.70;3.10;;;18.10;91.50;;;;;;5052998;28;20449;-57
2023/10/04 09:47:47;;;;;;;10.47;3.20;;;18.20;90.80;;;;;;5052948;28;20446;-57
2023/10/04 09:50:22;;;;;;;10.80;3.60;;;18.40;90.90;;;;;;5052774;28;20588;-58
2023/10/04 09:52:49;;;;;;;9.73;3.23;;;18.60;90.40;;;;;;5052935;28;20429;-57
2023/10/04 09:55:16;;;;;;;10.57;2.87;;;18.80;89.70;;;;;;5052911;28;20481;-57
2023/10/04 09:57:44;;;;;;;11.07;3.50;;;19.00;87.10;;;;;;5052637;28;20959;-57
2023/10/04 10:00:17;;;;;;;7.90;3.30;;;19.20;85.60;;;;;;5052816;28;20508;-58
2023/10/04 10:02:47;;;;;;;9.27;2.93;;;19.30;84.80;;;;;;5052924;28;20430;-58
2023/10/04 10:05:19;;;;;;;10.57;3.03;;;19.40;85.40;;;;;;5052861;28;20469;-58
2023/10/04 10:07:49;;;;;;;9.83;3.20;;;19.60;84.30;;;;;;5052944;28;20437;-58
2023/10/04 10:10:19;;;;;;;10.87;2.80;;;19.60;82.20;;;;;;5052738;28;20477;-58
2023/10/04 10:12:49;;;;;;;7.70;2.90;;;19.70;81.20;;;;;;5052742;28;20434;-57
2023/10/04 10:15:18;;;;;;;8.63;3.20;;;19.90;82.10;;;;;;5052616;28;20485;-57
2023/10/04 10:17:46;;;;;;;10.30;3.80;;;20.20;82.30;;;;;;5052703;28;20464;-58
2023/10/04 10:20:15;;;;;;;7.73;3.50;;;20.20;76.60;;;;;;5053163;28;20479;-58
2023/10/04 10:23:13;;;;;;;7.03;3.03;;;20.50;76.70;;;;;;5052811;28;20823;-57
2023/10/04 10:25:41;;;;;;;5.80;2.80;;;20.70;75.00;;;;;;5056363;28;20430;-58
2023/10/04 10:28:21;;;;;;;10.80;3.20;;;21.10;74.80;;;;;;5056224;28;20445;-58
2023/10/04 10:30:48;;;;;;;5.93;2.80;;;21.40;72.80;;;;;;5056333;28;20473;-58
2023/10/04 10:33:22;;;;;;;5.83;2.70;;;21.60;69.40;;;;;;5056121;28;20473;-56
2023/10/04 10:35:56;;;;;;;8.03;2.83;;;21.70;67.60;;;;;;5056159;28;20476;-56
2023/10/04 10:38:48;;;;;;;7.13;2.90;;;21.70;65.00;;;;;;5057563;28;20437;-56
2023/10/04 10:42:03;;;;;;;13.03;3.30;;;21.60;66.70;;;;;;5057972;28;20465;-55
2023/10/04 10:44:37;;;;;;;5.83;2.70;;;21.70;66.40;;;;;;5056894;28;21080;-55
2023/10/04 10:47:07;;;;;;;8.77;2.90;;;21.60;66.00;;;;;;5056770;28;20433;-56
2023/10/04 10:49:41;;;;;;;9.27;3.47;;;21.60;67.10;;;;;;5056029;28;20496;-56
2023/10/04 10:52:10;;;;;;;8.47;2.73;;;21.50;66.10;;;;;;5055745;28;20445;-56
2023/10/04 10:54:38;;;;;;;9.90;3.67;;;21.30;67.30;;;;;;5055826;28;20520;-56
2023/10/04 10:57:06;;;;;;;6.37;3.93;;;21.30;68.70;;;;;;5055830;28;20450;-56
2023/10/04 10:59:33;;;;;;;6.73;3.00;;;21.40;70.00;;;;;;5055602;28;20474;-56
2023/10/04 11:02:01;;;;;;;12.33;3.37;;;21.40;70.00;;;;;;5055712;28;20504;-56
2023/10/04 11:04:28;;;;;;;7.50;3.23;;;21.70;69.70;;;;;;5055652;28;20789;-56
2023/10/04 11:06:55;;;;;;;8.07;3.67;;;21.90;69.30;;;;;;5055301;28;21003;-56
2023/10/04 11:09:22;;;;;;;14.20;3.83;;;21.80;64.10;;;;;;5055290;28;20831;-56
2023/10/04 11:11:51;;;;;;;8.53;4.00;;;21.70;64.10;;;;;;5055503;28;20480;-55
2023/10/04 11:14:20;;;;;;;9.90;3.80;;;21.60;65.40;;;;;;5055031;28;20999;-55
2023/10/04 11:16:47;;;;;;;6.90;3.70;;;21.40;64.90;;;;;;5055518;28;20445;-55
2023/10/04 11:19:15;;;;;;;10.23;4.03;;;21.40;66.40;;;;;;5055106;28;20469;-55
2023/10/04 11:21:44;;;;;;;11.97;4.37;;;21.40;66.50;;;;;;5055425;28;20445;-55
2023/10/04 11:24:14;;;;;;;7.57;3.93;;;21.40;67.20;;;;;;5055194;28;20789;-55
2023/10/04 11:26:41;;;;;;;11.67;4.17;;;21.30;63.40;;;;;;5055187;28;20449;-55
2023/10/04 11:29:10;;;;;;;14.23;3.53;;;21.30;65.10;;;;;;5054945;28;20480;-56
2023/10/04 11:31:37;;;;;;;7.40;4.50;;;21.50;64.90;;;;;;5055169;28;20465;-56
2023/10/04 11:34:05;;;;;;;8.03;4.03;;;21.80;64.10;;;;;;5054791;28;20955;-55
2023/10/04 11:36:35;;;;;;;6.90;3.73;;;22.10;61.20;;;;;;5054004;28;20804;-56
2023/10/04 11:39:09;;;;;;;8.33;3.87;;;22.50;61.00;;;;;;5054589;28;20438;-56
2023/10/04 11:41:39;;;;;;;8.13;4.40;;;22.90;60.70;;;;;;5054907;28;20528;-56
2023/10/04 11:44:11;;;;;;;9.83;3.10;;;23.10;59.10;;;;;;5054765;28;20449;-55
2023/10/04 11:46:58;;;;;;;11.23;3.30;;;22.90;57.90;;;;;;5054580;28;20426;-56
2023/10/04 11:49:27;;;;;;;8.63;3.73;;;22.40;58.30;;;;;;5054696;28;20469;-56
2023/10/04 11:51:55;;;;;;;9.00;3.83;;;22.00;60.70;;;;;;5054292;28;21050;-56
2023/10/04 11:54:23;;;;;;;9.23;4.33;;;21.60;63.70;;;;;;5054587;28;20481;-55
2023/10/04 11:56:50;;;;;;;8.63;4.30;;;21.40;63.80;;;;;;5054509;28;20940;-56
2023/10/04 11:59:28;;;;;;;7.00;3.87;;;21.30;65.00;;;;;;5054582;28;20445;-56
2023/10/04 12:01:55;;;;;;;8.97;4.37;;;21.30;62.60;;;;;;5054226;28;20934;-56
2023/10/04 12:04:22;;;;;;;9.93;4.43;;;21.40;62.90;;;;;;5054587;28;20433;-56
2023/10/04 12:06:58;;;;;;;10.37;4.20;;;21.50;62.30;;;;;;5054121;28;20851;-56
2023/10/04 12:09:27;;;;;;;10.40;4.53;;;21.70;63.40;;;;;;5054366;28;20476;-56
2023/10/04 12:11:54;;;;;;;10.93;4.13;;;22.10;59.90;;;;;;5054333;28;20454;-56
2023/10/04 12:14:22;;;;;;;11.40;5.27;;;22.50;59.20;;;;;;5054172;28;20819;-56
2023/10/04 12:16:49;;;;;;;7.90;5.27;;;22.60;56.90;;;;;;5054256;28;20441;-56
2023/10/04 12:19:16;;;;;;;10.63;5.17;;;22.50;55.00;;;;;;5054217;28;20446;-56
2023/10/04 12:21:44;;;;;;;10.83;4.70;;;22.70;57.10;;;;;;5054247;28;20532;-56
2023/10/04 12:24:11;;;;;;;9.37;5.60;;;22.70;56.30;;;;;;5054274;28;21033;-56
2023/10/04 12:26:37;;;;;;;10.23;5.00;;;22.90;56.20;;;;;;5054095;28;20901;-56
2023/10/04 12:29:05;;;;;;;8.50;4.50;;;23.00;55.80;;;;;;5054140;28;20813;-56
2023/10/04 12:31:33;;;;;;;7.13;4.50;;;23.00;53.80;;;;;;5054026;28;20449;-56
2023/10/04 12:34:00;;;;;;;9.00;4.40;;;23.10;53.80;;;;;;5053888;28;20452;-56
2023/10/04 12:36:26;;;;;;;10.50;4.70;;;23.30;55.60;;;;;;5053835;28;20586;-56
2023/10/04 12:38:53;;;;;;;11.10;5.30;;;23.40;53.80;;;;;;5053523;28;20445;-56
2023/10/04 12:41:20;;;;;;;10.97;4.63;;;23.40;53.60;;;;;;5053915;28;20469;-56
2023/10/04 12:43:47;;;;;;;10.17;4.70;;;23.50;54.10;;;;;;5053938;28;20450;-57
2023/10/04 12:46:15;;;;;;;9.87;4.90;;;23.30;54.70;;;;;;5053221;28;20469;-58
2023/10/04 12:48:43;;;;;;;14.90;4.80;;;23.40;54.80;;;;;;5053409;28;20884;-58
2023/10/04 12:51:10;;;;;;;10.67;4.90;;;23.50;54.90;;;;;;5053214;28;21071;-58